createdAt,value
2022-11-24T00:01:18.439Z,1.08
2022-11-24T00:03:46.403Z,1.40
2022-11-24T00:06:15.174Z,1.10
2022-11-24T00:08:43.929Z,1.42
2022-11-24T00:11:14.289Z,1.48
2022-11-24T00:13:41.535Z,1.33
2022-11-24T00:16:17.071Z,1.23
2022-11-24T00:21:12.278Z,1.20
2022-11-24T00:23:39.078Z,0.70
2022-11-24T00:26:19.367Z,1.48
2022-11-24T00:28:47.962Z,0.98
2022-11-24T00:31:20.548Z,1.50
2022-11-24T00:33:48.965Z,1.10
2022-11-24T00:36:16.895Z,1.10
2022-11-24T00:38:44.419Z,1.05
2022-11-24T00:41:12.063Z,2.55
2022-11-24T00:43:38.710Z,0.80
2022-11-24T00:46:05.981Z,1.25
2022-11-24T00:48:32.762Z,1.42
2022-11-24T00:51:05.791Z,1.20
2022-11-24T00:53:32.768Z,1.00
2022-11-24T00:55:59.511Z,0.80
2022-11-24T00:58:26.611Z,0.85
2022-11-24T01:00:53.504Z,1.13
2022-11-24T01:03:21.180Z,0.77
2022-11-24T01:05:48.239Z,1.13
2022-11-24T01:08:15.098Z,0.82
2022-11-24T01:10:41.713Z,0.88
2022-11-24T01:13:08.563Z,0.88
2022-11-24T01:15:36.636Z,0.70
2022-11-24T01:18:05.065Z,1.02
2022-11-24T01:20:32.274Z,1.20
2022-11-24T01:22:59.039Z,0.80
2022-11-24T01:25:25.724Z,1.10
2022-11-24T01:27:52.659Z,1.00
2022-11-24T01:30:19.318Z,1.30
2022-11-24T01:32:45.959Z,0.95
2022-11-24T01:35:12.514Z,1.42
2022-11-24T01:37:39.463Z,0.82
2022-11-24T01:40:06.999Z,1.08
2022-11-24T01:42:51.310Z,0.85
2022-11-24T01:45:34.700Z,0.93
2022-11-24T01:48:05.850Z,1.40
2022-11-24T01:50:34.962Z,1.10
2022-11-24T01:53:02.108Z,0.80
2022-11-24T01:55:36.494Z,1.10
2022-11-24T01:58:19.027Z,0.85
2022-11-24T02:00:46.021Z,0.82
2022-11-24T02:03:15.959Z,0.88
2022-11-24T02:05:54.038Z,0.93
2022-11-24T02:08:34.947Z,1.05
2022-11-24T02:11:04.383Z,0.90
2022-11-24T02:13:34.257Z,0.90
2022-11-24T02:16:01.428Z,0.88
2022-11-24T02:18:28.205Z,1.23
2022-11-24T02:20:55.638Z,0.93
2022-11-24T02:23:38.387Z,0.98
2022-11-24T02:26:26.777Z,1.05
2022-11-24T02:28:53.560Z,0.73
2022-11-24T02:31:20.382Z,0.90
2022-11-24T02:33:49.518Z,0.82
2022-11-24T02:36:16.291Z,0.65
2022-11-24T02:38:43.046Z,0.90
2022-11-24T02:41:15.568Z,1.48
2022-11-24T02:43:47.056Z,0.52
2022-11-24T02:46:14.334Z,0.70
2022-11-24T02:48:41.256Z,0.65
2022-11-24T02:51:07.941Z,0.57
2022-11-24T02:53:34.766Z,0.40
2022-11-24T02:56:01.454Z,0.50
2022-11-24T02:58:28.099Z,0.75
2022-11-24T03:00:55.096Z,0.40
2022-11-24T03:03:22.062Z,0.60
2022-11-24T03:05:48.928Z,0.57
2022-11-24T03:08:15.739Z,0.50
2022-11-24T03:10:42.425Z,0.52
2022-11-24T03:13:09.045Z,0.55
2022-11-24T03:15:35.942Z,0.60
2022-11-24T03:18:02.938Z,0.75
2022-11-24T03:20:29.916Z,0.68
2022-11-24T03:22:56.628Z,0.95
2022-11-24T03:25:23.504Z,0.65
2022-11-24T03:27:50.158Z,0.70
2022-11-24T03:30:17.075Z,0.60
2022-11-24T03:32:43.680Z,1.08
2022-11-24T03:35:10.347Z,0.40
2022-11-24T03:37:37.267Z,0.82
2022-11-24T03:40:04.420Z,0.82
2022-11-24T03:42:31.021Z,0.50
2022-11-24T03:44:57.614Z,0.50
2022-11-24T03:47:24.190Z,0.50
2022-11-24T03:49:51.172Z,0.80
2022-11-24T03:52:17.744Z,0.70
2022-11-24T03:54:44.415Z,0.85
2022-11-24T03:57:11.027Z,1.00
2022-11-24T03:59:37.695Z,0.98
2022-11-24T04:02:04.295Z,0.82
2022-11-24T04:04:31.168Z,0.80
2022-11-24T04:06:57.790Z,0.50
2022-11-24T04:09:24.456Z,0.57
2022-11-24T04:12:09.381Z,0.68
2022-11-24T04:14:36.229Z,0.60
2022-11-24T04:17:04.114Z,0.60
2022-11-24T04:19:31.021Z,0.55
2022-11-24T04:21:57.710Z,0.50
2022-11-24T04:24:24.430Z,0.50
2022-11-24T04:26:51.028Z,0.43
2022-11-24T04:29:17.700Z,0.60
2022-11-24T04:31:44.328Z,0.47
2022-11-24T04:34:11.468Z,0.70
2022-11-24T04:36:38.047Z,0.90
2022-11-24T04:39:19.436Z,0.40
2022-11-24T04:41:51.269Z,0.60
2022-11-24T04:44:18.010Z,0.65
2022-11-24T04:46:44.840Z,0.90
2022-11-24T04:49:11.785Z,0.60
2022-11-24T04:51:39.958Z,0.30
2022-11-24T04:54:07.946Z,0.30
2022-11-24T04:56:34.691Z,0.50
2022-11-24T04:59:06.626Z,0.30
2022-11-24T05:01:34.889Z,0.35
2022-11-24T05:04:01.544Z,0.30
2022-11-24T05:06:28.307Z,0.30
2022-11-24T05:08:55.044Z,0.60
2022-11-24T05:11:21.655Z,0.35
2022-11-24T05:13:48.281Z,0.50
2022-11-24T05:16:15.858Z,0.70
2022-11-24T05:18:42.581Z,0.50
2022-11-24T05:21:09.263Z,0.30
2022-11-24T05:23:35.929Z,0.60
2022-11-24T05:26:04.159Z,1.42
2022-11-24T05:28:30.861Z,0.60
2022-11-24T05:31:04.699Z,0.63
2022-11-24T05:33:33.304Z,0.50
2022-11-24T05:36:01.655Z,0.60
2022-11-24T05:38:30.204Z,0.50
2022-11-24T05:41:04.814Z,0.70
2022-11-24T05:43:31.830Z,0.60
2022-11-24T05:46:01.872Z,0.43
2022-11-24T05:48:29.123Z,0.55
2022-11-24T05:50:57.243Z,0.70
2022-11-24T05:53:25.655Z,0.80
2022-11-24T05:55:52.615Z,0.60
2022-11-24T05:58:19.382Z,0.75
2022-11-24T06:00:46.058Z,0.60
2022-11-24T06:03:12.985Z,0.80
2022-11-24T06:05:39.747Z,0.70
2022-11-24T06:08:06.372Z,0.52
2022-11-24T06:10:32.896Z,0.55
2022-11-24T06:12:59.654Z,0.30
2022-11-24T06:15:26.393Z,0.60
2022-11-24T06:17:56.743Z,0.57
2022-11-24T06:20:29.731Z,0.80
2022-11-24T06:22:59.086Z,0.60
2022-11-24T06:25:26.531Z,0.55
2022-11-24T06:27:53.619Z,0.60
2022-11-24T06:30:20.225Z,0.50
2022-11-24T06:32:49.667Z,0.50
2022-11-24T06:35:16.480Z,0.60
2022-11-24T06:37:43.106Z,0.75
2022-11-24T06:40:10.332Z,0.70
2022-11-24T06:42:37.747Z,0.70
2022-11-24T06:45:09.142Z,1.08
2022-11-24T06:47:36.895Z,0.90
2022-11-24T06:50:03.761Z,1.00
2022-11-24T06:52:30.679Z,0.88
2022-11-24T06:54:57.649Z,0.80
2022-11-24T06:57:24.455Z,0.70
2022-11-24T06:59:51.190Z,1.10
2022-11-24T07:02:18.041Z,1.52
2022-11-24T07:04:44.613Z,0.88
2022-11-24T07:07:11.350Z,1.30
2022-11-24T07:09:37.935Z,1.10
2022-11-24T07:12:05.945Z,1.23
2022-11-24T07:14:33.485Z,0.70
2022-11-24T07:17:02.533Z,1.05
2022-11-24T07:19:29.275Z,1.05
2022-11-24T07:21:56.031Z,0.70
2022-11-24T07:24:22.738Z,1.50
2022-11-24T07:26:49.499Z,2.05
2022-11-24T07:29:16.109Z,2.10
2022-11-24T07:31:42.919Z,1.65
2022-11-24T07:34:09.719Z,1.48
2022-11-24T07:36:36.330Z,1.40
2022-11-24T07:39:03.044Z,1.30
2022-11-24T07:41:29.683Z,1.40
2022-11-24T07:43:56.254Z,1.45
2022-11-24T07:46:23.048Z,1.50
2022-11-24T07:48:49.776Z,1.20
2022-11-24T07:51:16.753Z,1.23
2022-11-24T07:53:43.806Z,1.38
2022-11-24T07:56:11.035Z,1.30
2022-11-24T07:58:38.122Z,1.20
2022-11-24T08:01:11.850Z,1.42
2022-11-24T08:03:38.814Z,1.85
2022-11-24T08:06:23.552Z,1.45
2022-11-24T08:08:51.198Z,1.40
2022-11-24T08:11:18.295Z,1.75
2022-11-24T08:13:45.349Z,1.85
2022-11-24T08:16:17.777Z,1.85
2022-11-24T08:18:49.415Z,2.00
2022-11-24T08:21:16.071Z,2.30
2022-11-24T08:23:42.910Z,2.88
2022-11-24T08:26:15.841Z,2.80
2022-11-24T08:28:43.082Z,2.70
2022-11-24T08:31:13.273Z,2.85
2022-11-24T08:33:40.905Z,2.60
2022-11-24T08:36:16.399Z,2.83
2022-11-24T08:41:13.475Z,2.00
2022-11-24T08:43:40.894Z,1.70
2022-11-24T08:46:10.025Z,1.90
2022-11-24T08:48:36.969Z,2.15
2022-11-24T08:51:25.898Z,1.88
2022-11-24T08:54:00.677Z,1.80
2022-11-24T08:56:29.947Z,1.67
2022-11-24T08:58:57.462Z,1.98
2022-11-24T09:01:24.800Z,2.35
2022-11-24T09:03:52.125Z,2.05
2022-11-24T09:06:24.788Z,2.03
2022-11-24T09:08:53.535Z,2.88
2022-11-24T09:11:20.445Z,2.22
2022-11-24T09:13:47.075Z,1.77
2022-11-24T09:16:16.551Z,1.65
2022-11-24T09:18:43.656Z,1.83
2022-11-24T09:21:12.361Z,1.30
2022-11-24T09:23:39.838Z,1.52
2022-11-24T09:26:08.241Z,1.67
2022-11-24T09:28:35.531Z,1.65
2022-11-24T09:31:04.369Z,2.13
2022-11-24T09:33:32.460Z,1.73
2022-11-24T09:35:59.907Z,1.70
2022-11-24T09:38:27.188Z,1.92
2022-11-24T09:40:57.376Z,1.45
2022-11-24T09:43:39.447Z,1.55
2022-11-24T09:46:11.233Z,2.00
2022-11-24T09:48:46.291Z,1.80
2022-11-24T09:51:15.066Z,1.52
2022-11-24T09:53:47.226Z,1.58
2022-11-24T09:56:24.817Z,1.23
2022-11-24T09:59:01.159Z,1.73
2022-11-24T10:01:39.317Z,1.40
2022-11-24T10:04:16.492Z,0.95
2022-11-24T10:06:52.308Z,0.93
2022-11-24T10:09:57.231Z,1.00
2022-11-24T10:13:03.674Z,0.90
2022-11-24T10:16:04.219Z,1.05
2022-11-24T10:19:07.383Z,0.77
2022-11-24T10:21:49.020Z,1.13
2022-11-24T10:24:24.361Z,1.30
2022-11-24T10:26:59.787Z,0.93
2022-11-24T10:29:34.002Z,1.10
2022-11-24T10:32:05.748Z,0.95
2022-11-24T10:34:43.594Z,0.95
2022-11-24T10:37:32.813Z,0.98
2022-11-24T10:40:48.641Z,1.00
2022-11-24T10:43:13.005Z,1.02
2022-11-24T10:45:40.279Z,0.60
2022-11-24T10:48:12.623Z,0.98
2022-11-24T10:50:41.381Z,1.02
2022-11-24T10:53:26.398Z,0.80
2022-11-24T10:55:58.955Z,0.98
2022-11-24T10:58:28.088Z,0.82
2022-11-24T11:00:59.697Z,0.85
2022-11-24T11:03:47.086Z,0.82
2022-11-24T11:06:20.911Z,0.60
2022-11-24T11:08:47.605Z,0.60
2022-11-24T11:11:18.938Z,0.70
2022-11-24T11:13:52.281Z,0.85
2022-11-24T11:16:59.689Z,0.60
2022-11-24T11:19:49.779Z,0.73
2022-11-24T11:22:32.011Z,0.60
2022-11-24T11:25:31.107Z,0.80
2022-11-24T11:28:18.701Z,0.80
2022-11-24T11:31:16.347Z,0.57
2022-11-24T11:34:22.118Z,0.82
2022-11-24T11:36:54.137Z,0.90
2022-11-24T11:39:25.540Z,0.90
2022-11-24T11:42:25.727Z,0.60
2022-11-24T11:45:08.041Z,0.50
2022-11-24T11:47:44.533Z,0.80
2022-11-24T11:50:16.587Z,0.93
2022-11-24T11:53:04.982Z,0.85
2022-11-24T11:55:53.558Z,0.50
2022-11-24T11:58:26.671Z,0.68
2022-11-24T12:01:18.752Z,0.60
2022-11-24T12:03:54.475Z,0.75
2022-11-24T12:07:06.856Z,0.98
2022-11-24T12:09:48.552Z,1.00
2022-11-24T12:12:33.172Z,1.05
2022-11-24T12:15:30.603Z,0.68
2022-11-24T12:19:00.241Z,0.70
2022-11-24T12:21:35.618Z,0.65
2022-11-24T12:24:11.105Z,0.50
2022-11-24T12:26:46.454Z,1.15
2022-11-24T12:29:46.976Z,0.35
2022-11-24T12:32:25.539Z,0.60
2022-11-24T12:35:01.268Z,0.75
2022-11-24T12:37:40.267Z,0.50
2022-11-24T12:40:09.839Z,0.68
2022-11-24T12:42:45.810Z,0.57
2022-11-24T12:45:16.278Z,0.50
2022-11-24T12:47:59.054Z,0.73
2022-11-24T12:50:29.451Z,0.82
2022-11-24T12:53:13.691Z,0.73
2022-11-24T12:55:42.892Z,0.80
2022-11-24T12:58:28.009Z,0.68
2022-11-24T13:01:44.161Z,1.25
2022-11-24T13:04:13.542Z,1.35
2022-11-24T13:06:55.317Z,1.48
2022-11-24T13:09:22.054Z,0.70
2022-11-24T13:11:51.643Z,0.63
2022-11-24T13:14:24.273Z,0.77
2022-11-24T13:17:28.817Z,0.47
2022-11-24T13:19:46.497Z,0.82
2022-11-24T13:22:24.277Z,0.70
2022-11-24T13:25:16.344Z,0.63
2022-11-24T13:27:45.912Z,0.80
2022-11-24T13:30:33.922Z,0.55
2022-11-24T13:33:03.364Z,1.00
2022-11-24T13:35:30.481Z,0.60
2022-11-24T13:37:57.638Z,0.40
2022-11-24T13:40:26.304Z,0.80
2022-11-24T13:42:56.419Z,0.70
2022-11-24T13:45:49.728Z,0.90
2022-11-24T13:48:19.450Z,1.08
2022-11-24T13:50:54.012Z,1.15
2022-11-24T13:53:47.584Z,0.73
2022-11-24T13:56:14.326Z,0.65
2022-11-24T13:58:42.882Z,0.75
2022-11-24T14:01:26.172Z,1.00
2022-11-24T14:06:51.468Z,0.93
2022-11-24T14:09:28.661Z,0.90
2022-11-24T14:12:20.655Z,0.70
2022-11-24T14:14:49.508Z,0.70
2022-11-24T14:17:23.793Z,1.17
2022-11-24T14:19:53.478Z,0.70
2022-11-24T14:22:40.165Z,0.75
2022-11-24T14:25:25.115Z,0.63
2022-11-24T14:27:51.928Z,0.80
2022-11-24T14:30:22.186Z,0.57
2022-11-24T14:32:55.125Z,1.00
2022-11-24T14:35:31.275Z,1.10
2022-11-24T14:37:59.084Z,1.00
2022-11-24T14:40:47.427Z,0.65
2022-11-24T14:43:34.655Z,0.50
2022-11-24T14:46:04.702Z,0.95
2022-11-24T14:48:45.332Z,1.20
2022-11-24T14:51:23.141Z,1.30
2022-11-24T14:53:57.262Z,0.57
2022-11-24T14:56:25.798Z,0.82
2022-11-24T14:58:53.555Z,0.73
2022-11-24T15:01:28.450Z,0.60
2022-11-24T15:07:25.492Z,0.70
2022-11-24T15:09:58.521Z,0.68
2022-11-24T15:12:30.798Z,0.77
2022-11-24T15:15:04.574Z,0.63
2022-11-24T15:17:31.555Z,1.23
2022-11-24T15:20:09.327Z,1.10
2022-11-24T15:22:44.729Z,1.63
2022-11-24T15:25:27.757Z,0.93
2022-11-24T15:27:54.590Z,0.90
2022-11-24T15:30:21.242Z,0.98
2022-11-24T15:32:56.321Z,1.20
2022-11-24T15:35:25.202Z,0.80
2022-11-24T15:37:51.917Z,0.70
2022-11-24T15:40:19.299Z,1.00
2022-11-24T15:42:51.795Z,1.23
2022-11-24T15:45:19.681Z,1.00
2022-11-24T15:47:46.601Z,0.93
2022-11-24T15:50:14.276Z,1.20
2022-11-24T15:52:41.237Z,2.05
2022-11-24T15:55:17.206Z,1.27
2022-11-24T15:57:44.261Z,2.00
2022-11-24T16:00:15.543Z,1.33
2022-11-24T16:02:43.048Z,1.17
2022-11-24T16:05:11.061Z,1.20
2022-11-24T16:07:38.229Z,1.00
2022-11-24T16:10:08.406Z,2.33
2022-11-24T16:12:35.309Z,1.17
2022-11-24T16:15:02.074Z,1.75
2022-11-24T16:17:28.764Z,1.77
2022-11-24T16:20:00.161Z,1.60
2022-11-24T16:22:27.471Z,1.15
2022-11-24T16:24:54.106Z,1.08
2022-11-24T16:27:21.000Z,1.38
2022-11-24T16:29:47.866Z,2.17
2022-11-24T16:32:14.532Z,2.55
2022-11-24T16:34:41.180Z,1.55
2022-11-24T16:37:07.919Z,2.70
2022-11-24T16:39:34.864Z,2.70
2022-11-24T16:42:01.586Z,1.55
2022-11-24T16:44:28.144Z,1.75
2022-11-24T16:46:54.947Z,1.75
2022-11-24T16:49:22.500Z,2.83
2022-11-24T16:51:49.135Z,2.67
2022-11-24T16:54:15.715Z,2.05
2022-11-24T16:56:42.431Z,2.67
2022-11-24T16:59:09.294Z,2.17
2022-11-24T17:01:36.091Z,1.50
2022-11-24T17:04:04.340Z,1.80
2022-11-24T17:06:34.047Z,2.28
2022-11-24T17:09:01.341Z,1.98
2022-11-24T17:11:29.054Z,2.00
2022-11-24T17:13:58.995Z,2.53
2022-11-24T17:16:26.850Z,2.63
2022-11-24T17:18:54.393Z,2.28
2022-11-24T17:21:23.529Z,2.30
2022-11-24T17:24:02.850Z,2.30
2022-11-24T17:26:29.989Z,2.60
2022-11-24T17:28:57.410Z,1.75
2022-11-24T17:31:25.389Z,2.15
2022-11-24T17:33:59.644Z,3.65
2022-11-24T17:36:27.140Z,3.78
2022-11-24T17:38:54.138Z,3.33
2022-11-24T17:41:21.815Z,3.47
2022-11-24T17:43:53.518Z,3.47
2022-11-24T17:46:20.350Z,3.10
2022-11-24T17:48:47.621Z,3.28
2022-11-24T17:51:17.362Z,3.20
2022-11-24T17:53:46.592Z,2.50
2022-11-24T17:56:15.779Z,2.05
2022-11-24T17:58:43.518Z,2.47
2022-11-24T18:01:12.100Z,2.50
2022-11-24T18:03:40.035Z,2.88
2022-11-24T18:06:09.253Z,4.25
2022-11-24T18:08:37.232Z,3.13
2022-11-24T18:11:09.541Z,3.97
2022-11-24T18:14:01.023Z,3.10
2022-11-24T18:16:24.463Z,3.33
2022-11-24T18:19:07.407Z,3.22
2022-11-24T18:21:36.096Z,3.40
2022-11-24T18:24:02.724Z,3.88
2022-11-24T18:26:29.555Z,3.53
2022-11-24T18:28:56.183Z,3.22
2022-11-24T18:31:22.887Z,3.83
2022-11-24T18:33:49.570Z,2.50
2022-11-24T18:36:18.976Z,3.10
2022-11-24T18:38:45.975Z,2.70
2022-11-24T18:41:14.655Z,3.20
2022-11-24T18:43:41.942Z,2.85
2022-11-24T18:46:14.796Z,4.00
2022-11-24T18:48:42.752Z,5.55
2022-11-24T18:51:14.452Z,3.83
2022-11-24T18:53:46.112Z,3.58
2022-11-24T18:56:15.961Z,3.15
2022-11-24T18:58:43.565Z,3.58
2022-11-24T19:01:20.452Z,4.00
2022-11-24T19:03:49.743Z,3.53
2022-11-24T19:06:32.234Z,3.58
2022-11-24T19:09:01.622Z,3.75
2022-11-24T19:11:35.394Z,5.80
2022-11-24T19:14:03.284Z,4.80
2022-11-24T19:16:30.195Z,4.75
2022-11-24T19:19:00.088Z,2.58
2022-11-24T19:21:30.118Z,2.95
2022-11-24T19:24:02.863Z,3.15
2022-11-24T19:26:31.496Z,4.43
2022-11-24T19:28:58.151Z,3.88
2022-11-24T19:31:25.522Z,3.30
2022-11-24T19:33:54.619Z,3.25
2022-11-24T19:36:23.251Z,4.25
2022-11-24T19:38:57.622Z,4.07
2022-11-24T19:41:30.104Z,4.40
2022-11-24T19:43:58.540Z,4.40
2022-11-24T19:46:27.546Z,4.95
2022-11-24T19:48:56.198Z,5.63
2022-11-24T19:51:25.667Z,4.13
2022-11-24T19:53:53.209Z,3.50
2022-11-24T19:56:23.146Z,5.38
2022-11-24T19:58:51.386Z,5.82
2022-11-24T20:01:35.189Z,5.38
2022-11-24T20:04:07.900Z,5.35
2022-11-24T20:06:36.914Z,4.88
2022-11-24T20:09:06.327Z,2.90
2022-11-24T20:11:33.466Z,3.70
2022-11-24T20:14:00.177Z,2.72
2022-11-24T20:16:29.910Z,2.67
2022-11-24T20:19:07.911Z,2.00
2022-11-24T20:21:36.286Z,2.83
2022-11-24T20:24:10.057Z,3.20
2022-11-24T20:26:39.887Z,2.80
2022-11-24T20:29:09.652Z,2.85
2022-11-24T20:31:39.274Z,2.90
2022-11-24T20:34:07.654Z,2.60
2022-11-24T20:36:36.229Z,2.55
2022-11-24T20:39:06.250Z,2.50
2022-11-24T20:41:34.609Z,2.45
2022-11-24T20:44:07.183Z,2.90
2022-11-24T20:46:36.519Z,2.60
2022-11-24T20:49:04.814Z,3.08
2022-11-24T20:51:34.371Z,1.98
2022-11-24T20:54:04.197Z,2.10
2022-11-24T20:56:35.154Z,2.45
2022-11-24T20:59:03.374Z,2.22
2022-11-24T21:01:38.816Z,2.60
2022-11-24T21:06:33.844Z,2.40
2022-11-24T21:09:04.029Z,2.53
2022-11-24T21:11:32.049Z,2.40
2022-11-24T21:13:58.907Z,2.75
2022-11-24T21:16:28.512Z,3.05
2022-11-24T21:18:57.854Z,2.75
2022-11-24T21:21:26.190Z,2.58
2022-11-24T21:23:53.046Z,2.17
2022-11-24T21:26:19.783Z,2.38
2022-11-24T21:28:47.713Z,2.63
2022-11-24T21:31:20.427Z,2.63
2022-11-24T21:33:49.783Z,2.35
2022-11-24T21:36:19.321Z,2.63
2022-11-24T21:38:54.704Z,2.45
2022-11-24T21:41:23.191Z,2.13
2022-11-24T21:43:50.171Z,2.40
2022-11-24T21:46:17.465Z,2.45
2022-11-24T21:48:44.533Z,2.45
2022-11-24T21:51:19.747Z,2.28
2022-11-24T21:53:47.423Z,2.53
2022-11-24T21:56:17.166Z,2.30
2022-11-24T21:58:52.532Z,1.80
2022-11-24T22:01:21.951Z,2.10
2022-11-24T22:03:49.009Z,2.25
2022-11-24T22:06:19.073Z,2.25
2022-11-24T22:08:47.203Z,2.20
2022-11-24T22:11:19.863Z,2.67
2022-11-24T22:13:47.219Z,2.33
2022-11-24T22:16:19.912Z,2.17
2022-11-24T22:18:46.995Z,2.47
2022-11-24T22:21:20.418Z,2.58
2022-11-24T22:23:51.314Z,2.58
2022-11-24T22:26:20.491Z,2.50
2022-11-24T22:28:47.479Z,2.80
2022-11-24T22:31:17.227Z,2.22
2022-11-24T22:33:44.370Z,2.90
2022-11-24T22:36:12.811Z,2.35
2022-11-24T22:38:40.609Z,2.33
2022-11-24T22:41:13.023Z,2.20
2022-11-24T22:43:41.423Z,2.65
2022-11-24T22:46:13.680Z,2.42
2022-11-24T22:48:41.579Z,2.08
2022-11-24T22:51:14.208Z,2.45
2022-11-24T22:53:41.403Z,2.40
2022-11-24T22:56:10.925Z,2.15
2022-11-24T22:58:38.774Z,2.78
2022-11-24T23:01:10.978Z,2.42
2022-11-24T23:03:38.762Z,2.83
2022-11-24T23:06:08.500Z,2.50
2022-11-24T23:08:35.962Z,2.33
2022-11-24T23:11:10.781Z,2.20
2022-11-24T23:13:38.124Z,2.53
2022-11-24T23:16:23.268Z,2.40
2022-11-24T23:18:53.993Z,2.10
2022-11-24T23:21:26.657Z,2.20
2022-11-24T23:23:53.799Z,2.63
2022-11-24T23:26:23.340Z,2.50
2022-11-24T23:28:50.475Z,2.08
2022-11-24T23:31:19.850Z,1.98
2022-11-24T23:33:46.892Z,2.00
2022-11-24T23:36:16.143Z,2.10
2022-11-24T23:38:43.870Z,2.20
2022-11-24T23:41:13.994Z,2.25
2022-11-24T23:43:42.250Z,2.08
2022-11-24T23:46:16.395Z,2.08
2022-11-24T23:48:43.861Z,2.20
2022-11-24T23:51:14.983Z,2.00
2022-11-24T23:53:42.663Z,2.10
2022-11-24T23:56:14.967Z,2.10
2022-11-24T23:58:41.793Z,2.03
